Verden, Oklahoma
Current Conditions -  °F | °C
As of 8:35 AM on Saturday 25 Oct 2014 (Local Time) from KRCE Reporting Station
NA  
Wind Chill: 17°   Ceiling: NA
Heat Index: 17°   Visibility: NA
Dew Point: 16°   Wind: 7mph
Humidity: 94%   Direction: 190°S
Pressure: 30.09"   Gusts: NA
Location:  35.08°N, 98.09°W
Report Text: KRCE 251335Z AUTO 19006KT 17/16 A3009 RMK AO2
Loading
Personal Weather Stations






























Interactive Weather Map
Tropical Storm Tracking
New forecast layout! Learn more

10-Day Weather Forecast

Advertisements
Track Severe Weather on mobile